createdAt,value
2022-11-24T00:01:07.013Z,6.63
2022-11-24T00:03:34.246Z,6.65
2022-11-24T00:06:09.436Z,6.66
2022-11-24T00:08:37.335Z,6.71
2022-11-24T00:11:15.400Z,6.75
2022-11-24T00:13:44.151Z,6.77
2022-11-24T00:16:17.244Z,6.81
2022-11-24T00:18:45.476Z,6.83
2022-11-24T00:21:12.614Z,6.84
2022-11-24T00:23:39.714Z,6.86
2022-11-24T00:26:12.303Z,6.83
2022-11-24T00:28:40.406Z,6.82
2022-11-24T00:31:17.507Z,6.78
2022-11-24T00:33:45.623Z,6.77
2022-11-24T00:36:12.367Z,6.73
2022-11-24T00:38:39.024Z,6.69
2022-11-24T00:41:06.205Z,6.69
2022-11-24T00:43:33.934Z,6.71
2022-11-24T00:46:00.844Z,6.72
2022-11-24T00:48:27.607Z,6.73
2022-11-24T00:50:59.676Z,6.69
2022-11-24T00:53:27.039Z,6.67
2022-11-24T00:55:54.464Z,6.65
2022-11-24T00:58:21.855Z,6.63
2022-11-24T01:00:49.062Z,6.58
2022-11-24T01:03:16.191Z,6.57
2022-11-24T01:05:42.867Z,6.57
2022-11-24T01:08:09.496Z,6.57
2022-11-24T01:10:36.339Z,6.54
2022-11-24T01:13:03.465Z,6.54
2022-11-24T01:15:30.394Z,6.52
2022-11-24T01:17:57.534Z,6.47
2022-11-24T01:20:24.111Z,6.43
2022-11-24T01:22:50.689Z,6.40
2022-11-24T01:25:17.352Z,6.39
2022-11-24T01:27:44.025Z,6.40
2022-11-24T01:30:11.160Z,6.40
2022-11-24T01:32:37.882Z,6.37
2022-11-24T01:35:05.556Z,6.36
2022-11-24T01:37:32.296Z,6.33
2022-11-24T01:39:59.200Z,6.30
2022-11-24T01:42:26.165Z,6.30
2022-11-24T01:45:27.550Z,6.28
2022-11-24T01:47:54.526Z,6.24
2022-11-24T01:50:21.714Z,6.24
2022-11-24T01:52:52.947Z,6.24
2022-11-24T01:55:31.031Z,6.24
2022-11-24T01:58:04.696Z,6.26
2022-11-24T02:00:32.729Z,6.29
2022-11-24T02:03:00.004Z,6.33
2022-11-24T02:05:39.229Z,6.39
2022-11-24T02:08:14.772Z,6.44
2022-11-24T02:10:42.806Z,6.50
2022-11-24T02:13:09.537Z,6.53
2022-11-24T02:15:36.173Z,6.55
2022-11-24T02:18:02.889Z,6.63
2022-11-24T02:20:29.860Z,6.66
2022-11-24T02:23:03.751Z,6.70
2022-11-24T02:25:48.456Z,6.75
2022-11-24T02:28:19.016Z,6.78
2022-11-24T02:30:46.141Z,6.80
2022-11-24T02:33:14.259Z,6.82
2022-11-24T02:35:41.232Z,6.87
2022-11-24T02:38:13.390Z,6.90
2022-11-24T02:40:44.418Z,6.91
2022-11-24T02:43:19.747Z,6.89
2022-11-24T02:45:46.962Z,6.89
2022-11-24T02:48:16.660Z,6.89
2022-11-24T02:50:45.371Z,6.90
2022-11-24T02:53:12.274Z,6.90
2022-11-24T02:55:39.014Z,6.89
2022-11-24T02:58:05.889Z,6.89
2022-11-24T03:00:32.597Z,6.89
2022-11-24T03:05:43.895Z,6.91
2022-11-24T03:08:12.269Z,6.93
2022-11-24T03:10:39.848Z,6.94
2022-11-24T03:13:06.435Z,6.95
2022-11-24T03:15:33.471Z,6.96
2022-11-24T03:18:01.110Z,6.98
2022-11-24T03:20:28.122Z,6.97
2022-11-24T03:23:02.498Z,6.99
2022-11-24T03:25:29.426Z,7.02
2022-11-24T03:28:00.493Z,7.05
2022-11-24T03:30:27.488Z,7.06
2022-11-24T03:32:54.294Z,7.08
2022-11-24T03:35:22.599Z,7.09
2022-11-24T03:37:49.697Z,7.11
2022-11-24T03:40:17.953Z,7.10
2022-11-24T03:42:44.584Z,7.11
2022-11-24T03:47:59.674Z,7.07
2022-11-24T03:50:26.293Z,7.04
2022-11-24T03:52:52.931Z,7.02
2022-11-24T03:55:19.650Z,7.02
2022-11-24T03:57:54.028Z,7.01
2022-11-24T04:00:20.739Z,7.02
2022-11-24T04:02:48.601Z,7.02
2022-11-24T04:05:15.738Z,7.02
2022-11-24T04:07:42.444Z,7.04
2022-11-24T04:10:09.360Z,7.01
2022-11-24T04:12:45.022Z,7.02
2022-11-24T04:15:19.491Z,7.04
2022-11-24T04:17:47.512Z,7.04
2022-11-24T04:20:15.027Z,7.06
2022-11-24T04:22:42.541Z,7.05
2022-11-24T04:25:10.730Z,7.03
2022-11-24T04:27:39.787Z,7.02
2022-11-24T04:30:07.526Z,7.01
2022-11-24T04:32:34.059Z,7.04
2022-11-24T04:35:00.754Z,7.06
2022-11-24T04:37:27.317Z,7.06
2022-11-24T04:39:55.397Z,7.06
2022-11-24T04:42:22.322Z,7.06
2022-11-24T04:44:48.795Z,7.06
2022-11-24T04:47:22.104Z,7.08
2022-11-24T04:49:50.171Z,7.09
2022-11-24T04:55:01.761Z,7.13
2022-11-24T04:57:28.397Z,7.14
2022-11-24T04:59:55.538Z,7.14
2022-11-24T05:02:23.239Z,7.13
2022-11-24T05:04:49.867Z,7.13
2022-11-24T05:07:19.298Z,7.17
2022-11-24T05:10:06.613Z,7.18
2022-11-24T05:12:33.241Z,7.18
2022-11-24T05:15:01.129Z,7.20
2022-11-24T05:17:32.950Z,7.18
2022-11-24T05:19:59.882Z,7.21
2022-11-24T05:22:28.882Z,7.21
2022-11-24T05:24:56.003Z,7.18
2022-11-24T05:27:22.546Z,7.15
2022-11-24T05:29:49.262Z,7.12
2022-11-24T05:32:15.906Z,7.12
2022-11-24T05:34:42.647Z,7.08
2022-11-24T05:37:09.202Z,7.07
2022-11-24T05:39:36.868Z,7.04
2022-11-24T05:42:25.312Z,7.02
2022-11-24T05:44:56.170Z,7.00
2022-11-24T05:47:22.799Z,6.99
2022-11-24T05:49:49.770Z,6.98
2022-11-24T05:52:16.541Z,6.96
2022-11-24T05:54:43.181Z,6.94
2022-11-24T05:57:09.988Z,6.92
2022-11-24T05:59:36.508Z,6.90
2022-11-24T06:02:03.868Z,6.90
2022-11-24T06:04:30.909Z,6.88
2022-11-24T06:06:57.773Z,6.90
2022-11-24T06:09:25.141Z,6.90
2022-11-24T06:11:54.891Z,6.90
2022-11-24T06:14:23.035Z,6.90
2022-11-24T06:16:49.685Z,6.91
2022-11-24T06:19:16.342Z,6.90
2022-11-24T06:21:42.909Z,6.89
2022-11-24T06:24:09.548Z,6.89
2022-11-24T06:26:36.215Z,6.89
2022-11-24T06:29:02.879Z,6.87
2022-11-24T06:31:29.666Z,6.88
2022-11-24T06:33:56.441Z,6.89
2022-11-24T06:36:22.927Z,6.89
2022-11-24T06:38:49.545Z,6.89
2022-11-24T06:41:17.265Z,6.89
2022-11-24T06:43:44.721Z,6.89
2022-11-24T06:46:11.946Z,6.89
2022-11-24T06:48:38.787Z,6.88
2022-11-24T06:51:10.083Z,6.88
2022-11-24T06:53:38.364Z,6.88
2022-11-24T06:56:10.575Z,6.88
2022-11-24T06:58:42.634Z,6.84
2022-11-24T07:01:10.227Z,6.78
2022-11-24T07:03:37.118Z,6.72
2022-11-24T07:06:04.140Z,6.68
2022-11-24T07:08:30.887Z,6.66
2022-11-24T07:10:57.482Z,6.67
2022-11-24T07:13:23.962Z,6.66
2022-11-24T07:15:50.753Z,6.65
2022-11-24T07:18:17.295Z,6.67
2022-11-24T07:20:43.822Z,6.67
2022-11-24T07:23:10.552Z,6.68
2022-11-24T07:25:37.044Z,6.71
2022-11-24T07:28:03.767Z,6.72
2022-11-24T07:30:30.385Z,6.73
2022-11-24T07:33:03.879Z,6.76
2022-11-24T07:35:30.866Z,6.77
2022-11-24T07:37:59.256Z,6.78
2022-11-24T07:40:26.953Z,6.80
2022-11-24T07:42:54.403Z,6.81
2022-11-24T07:45:21.531Z,6.82
2022-11-24T07:47:48.158Z,6.83
2022-11-24T07:50:15.328Z,6.85
2022-11-24T07:52:41.874Z,6.87
2022-11-24T07:55:09.089Z,6.88
2022-11-24T07:57:35.717Z,6.88
2022-11-24T08:00:04.230Z,6.90
2022-11-24T08:02:31.171Z,6.92
2022-11-24T08:04:57.807Z,6.91
2022-11-24T08:07:24.368Z,6.92
2022-11-24T08:09:52.211Z,6.93
2022-11-24T08:12:21.979Z,6.95
2022-11-24T08:14:52.290Z,7.00
2022-11-24T08:17:18.909Z,7.02
2022-11-24T08:19:45.794Z,7.05
2022-11-24T08:22:12.459Z,7.08
2022-11-24T08:24:40.602Z,7.10
2022-11-24T08:27:07.424Z,7.12
2022-11-24T08:29:34.171Z,7.15
2022-11-24T08:32:00.869Z,7.17
2022-11-24T08:34:27.431Z,7.17
2022-11-24T08:36:54.111Z,7.16
2022-11-24T08:39:20.803Z,7.14
2022-11-24T08:41:47.619Z,7.14
2022-11-24T08:44:16.015Z,7.17
2022-11-24T08:46:42.683Z,7.24
2022-11-24T08:49:09.961Z,7.30
2022-11-24T08:51:37.043Z,7.34
2022-11-24T08:54:04.263Z,7.37
2022-11-24T08:56:33.065Z,7.39
2022-11-24T08:59:00.537Z,7.38
2022-11-24T09:01:28.384Z,7.38
2022-11-24T09:03:56.449Z,7.31
2022-11-24T09:06:25.969Z,7.24
2022-11-24T09:08:54.740Z,7.19
2022-11-24T09:11:21.732Z,7.16
2022-11-24T09:13:48.534Z,7.16
2022-11-24T09:16:27.031Z,7.19
2022-11-24T09:18:58.211Z,7.26
2022-11-24T09:21:25.334Z,7.36
2022-11-24T09:23:53.394Z,7.36
2022-11-24T09:26:28.695Z,7.35
2022-11-24T09:28:57.368Z,7.37
2022-11-24T09:31:30.764Z,7.38
2022-11-24T09:33:58.088Z,7.41
2022-11-24T09:36:24.746Z,7.45
2022-11-24T09:38:52.647Z,7.47
2022-11-24T09:41:43.958Z,7.52
2022-11-24T09:44:19.653Z,7.55
2022-11-24T09:47:17.187Z,7.57
2022-11-24T09:49:58.889Z,7.63
2022-11-24T09:52:49.641Z,7.66
2022-11-24T09:55:25.765Z,7.70
2022-11-24T09:58:02.178Z,7.73
2022-11-24T10:00:30.291Z,7.79
2022-11-24T10:02:58.223Z,7.85
2022-11-24T10:05:29.232Z,7.88
2022-11-24T10:08:37.645Z,7.90
2022-11-24T10:11:12.883Z,7.93
2022-11-24T10:14:05.324Z,7.99
2022-11-24T10:16:57.705Z,8.09
2022-11-24T10:19:37.345Z,8.12
2022-11-24T10:22:42.614Z,8.14
2022-11-24T10:25:21.522Z,8.18
2022-11-24T10:28:13.203Z,8.17
2022-11-24T10:30:40.256Z,8.17
2022-11-24T10:33:28.805Z,8.19
2022-11-24T10:36:37.675Z,8.23
2022-11-24T10:39:15.699Z,8.22
2022-11-24T10:41:56.923Z,8.28
2022-11-24T10:44:23.700Z,8.36
2022-11-24T10:46:52.854Z,8.48
2022-11-24T10:49:30.033Z,8.54
2022-11-24T10:52:11.424Z,8.51
2022-11-24T10:54:55.201Z,8.51
2022-11-24T10:57:28.960Z,8.53
2022-11-24T10:59:56.542Z,8.53
2022-11-24T11:02:31.165Z,8.62
2022-11-24T11:04:58.378Z,8.72
2022-11-24T11:07:26.877Z,8.79
2022-11-24T11:10:23.145Z,8.82
2022-11-24T11:12:53.114Z,8.86
2022-11-24T11:15:31.172Z,8.93
2022-11-24T11:18:00.260Z,9.00
2022-11-24T11:20:33.167Z,9.06
2022-11-24T11:23:17.400Z,9.07
2022-11-24T11:25:44.143Z,9.12
2022-11-24T11:28:18.343Z,9.15
2022-11-24T11:31:18.040Z,9.19
2022-11-24T11:34:23.230Z,9.16
2022-11-24T11:36:58.223Z,9.18
2022-11-24T11:39:35.463Z,9.24
2022-11-24T11:43:00.737Z,9.26
2022-11-24T11:45:17.883Z,9.32
2022-11-24T11:47:56.774Z,9.35
2022-11-24T11:54:05.313Z,9.44
2022-11-24T11:56:37.866Z,9.50
2022-11-24T11:59:16.837Z,9.54
2022-11-24T12:02:04.267Z,9.58
2022-11-24T12:04:49.588Z,9.58
2022-11-24T12:07:19.125Z,9.62
2022-11-24T12:10:11.029Z,9.63
2022-11-24T12:12:55.918Z,9.63
2022-11-24T12:15:44.762Z,9.66
2022-11-24T12:19:00.740Z,9.67
2022-11-24T12:21:41.315Z,9.72
2022-11-24T12:24:19.788Z,9.76
2022-11-24T12:26:54.945Z,9.82
2022-11-24T12:29:27.453Z,9.86
2022-11-24T12:32:05.766Z,9.87
2022-11-24T12:35:09.033Z,9.88
2022-11-24T12:38:02.780Z,9.90
2022-11-24T12:40:43.626Z,9.94
2022-11-24T12:43:22.738Z,9.96
2022-11-24T12:46:12.508Z,9.99
2022-11-24T12:49:15.286Z,10.02
2022-11-24T12:51:46.221Z,10.04
2022-11-24T12:54:16.028Z,10.04
2022-11-24T12:57:02.278Z,10.05
2022-11-24T12:59:43.822Z,10.05
2022-11-24T13:02:47.060Z,10.11
2022-11-24T13:05:21.286Z,10.13
2022-11-24T13:07:54.534Z,10.15
2022-11-24T13:10:40.498Z,10.12
2022-11-24T13:13:13.261Z,10.14
2022-11-24T13:16:34.678Z,10.14
2022-11-24T13:18:47.809Z,10.14
2022-11-24T13:21:43.125Z,10.12
2022-11-24T13:24:19.899Z,10.14
2022-11-24T13:26:49.165Z,10.15
2022-11-24T13:29:30.963Z,10.15
2022-11-24T13:32:06.723Z,10.14
2022-11-24T13:34:39.045Z,10.14
2022-11-24T13:37:35.377Z,10.13
2022-11-24T13:40:11.892Z,10.10
2022-11-24T13:43:02.345Z,10.11
2022-11-24T13:45:41.892Z,10.12
2022-11-24T13:48:21.386Z,10.08
2022-11-24T13:50:52.204Z,10.04
2022-11-24T13:53:41.435Z,10.01
2022-11-24T13:56:14.051Z,10.01
2022-11-24T13:58:42.081Z,9.99
2022-11-24T14:01:36.228Z,9.98
2022-11-24T14:07:07.995Z,9.92
2022-11-24T14:09:42.123Z,9.87
2022-11-24T14:12:21.029Z,9.84
2022-11-24T14:14:49.971Z,9.81
2022-11-24T14:17:18.793Z,9.76
2022-11-24T14:19:48.250Z,9.69
2022-11-24T14:22:31.430Z,9.67
2022-11-24T14:25:00.080Z,9.64
2022-11-24T14:27:36.267Z,9.59
2022-11-24T14:30:13.527Z,9.53
2022-11-24T14:32:41.817Z,9.49
2022-11-24T14:35:24.013Z,9.42
2022-11-24T14:37:51.526Z,9.35
2022-11-24T14:40:45.363Z,9.29
2022-11-24T14:43:35.601Z,9.23
2022-11-24T14:46:06.184Z,9.16
2022-11-24T14:48:46.881Z,9.11
2022-11-24T14:51:24.690Z,9.06
2022-11-24T14:53:53.851Z,9.01
2022-11-24T14:56:28.047Z,8.95
2022-11-24T14:58:56.069Z,8.91
2022-11-24T15:01:35.291Z,8.85
2022-11-24T15:04:46.328Z,8.76
2022-11-24T15:07:19.377Z,8.67
2022-11-24T15:09:55.489Z,8.61
2022-11-24T15:12:34.626Z,8.55
2022-11-24T15:15:14.517Z,8.48
2022-11-24T15:17:50.291Z,8.38
2022-11-24T15:20:55.605Z,8.36
2022-11-24T15:23:33.183Z,8.30
2022-11-24T15:26:02.435Z,8.24
2022-11-24T15:28:30.784Z,8.21
2022-11-24T15:31:01.812Z,8.19
2022-11-24T15:33:29.741Z,8.15
2022-11-24T15:35:56.789Z,8.10
2022-11-24T15:38:25.445Z,8.06
2022-11-24T15:40:54.890Z,8.04
2022-11-24T15:43:38.684Z,7.99
2022-11-24T15:46:07.034Z,7.95
2022-11-24T15:48:33.840Z,7.92
2022-11-24T15:51:03.179Z,7.86
2022-11-24T15:53:32.828Z,7.83
2022-11-24T15:56:02.019Z,7.79
2022-11-24T15:58:28.845Z,7.75
2022-11-24T16:00:56.554Z,7.75
2022-11-24T16:03:46.485Z,7.74
2022-11-24T16:06:19.236Z,7.69
2022-11-24T16:08:50.664Z,7.66
2022-11-24T16:11:17.286Z,7.63
2022-11-24T16:13:54.057Z,7.64
2022-11-24T16:16:23.664Z,7.62
2022-11-24T16:18:54.276Z,7.62
2022-11-24T16:21:21.719Z,7.60
2022-11-24T16:23:48.945Z,7.60
2022-11-24T16:26:15.638Z,7.60
2022-11-24T16:28:44.711Z,7.59
2022-11-24T16:31:12.734Z,7.55
2022-11-24T16:33:41.349Z,7.55
2022-11-24T16:36:08.949Z,7.54
2022-11-24T16:38:35.789Z,7.53
2022-11-24T16:41:02.398Z,7.50
2022-11-24T16:43:29.876Z,7.48
2022-11-24T16:46:08.777Z,7.46
2022-11-24T16:48:38.149Z,7.43
2022-11-24T16:51:12.100Z,7.43
2022-11-24T16:53:38.919Z,7.41
2022-11-24T16:56:06.386Z,7.39
2022-11-24T16:58:33.747Z,7.39
2022-11-24T17:01:12.174Z,7.37
2022-11-24T17:03:39.988Z,7.33
2022-11-24T17:06:08.684Z,7.32
2022-11-24T17:08:37.266Z,7.29
2022-11-24T17:11:11.813Z,7.26
2022-11-24T17:13:39.058Z,7.27
2022-11-24T17:16:08.173Z,7.24
2022-11-24T17:18:34.877Z,7.24
2022-11-24T17:21:07.780Z,7.24
2022-11-24T17:23:36.085Z,7.30
2022-11-24T17:26:04.212Z,7.31
2022-11-24T17:28:30.923Z,7.32
2022-11-24T17:30:57.778Z,7.35
2022-11-24T17:33:24.517Z,7.38
2022-11-24T17:35:51.327Z,7.39
2022-11-24T17:38:17.929Z,7.39
2022-11-24T17:40:48.088Z,7.39
2022-11-24T17:43:14.829Z,7.39
2022-11-24T17:45:41.584Z,7.40
2022-11-24T17:48:08.683Z,7.37
2022-11-24T17:50:35.316Z,7.34
2022-11-24T17:53:01.844Z,7.32
2022-11-24T17:55:28.409Z,7.31
2022-11-24T17:57:57.040Z,7.30
2022-11-24T18:00:23.881Z,7.29
2022-11-24T18:02:50.499Z,7.30
2022-11-24T18:05:17.196Z,7.31
2022-11-24T18:07:43.717Z,7.29
2022-11-24T18:10:11.019Z,7.32
2022-11-24T18:12:37.569Z,7.30
2022-11-24T18:15:04.404Z,7.31
2022-11-24T18:17:31.036Z,7.33
2022-11-24T18:19:57.578Z,7.35
2022-11-24T18:22:50.045Z,7.37
2022-11-24T18:25:10.776Z,7.36
2022-11-24T18:27:37.300Z,7.36
2022-11-24T18:30:04.993Z,7.36
2022-11-24T18:32:32.674Z,7.39
2022-11-24T18:34:59.274Z,7.40
2022-11-24T18:37:26.241Z,7.41
2022-11-24T18:39:52.955Z,7.40
2022-11-24T18:42:20.889Z,7.40
2022-11-24T18:44:51.100Z,7.39
2022-11-24T18:47:21.067Z,7.39
2022-11-24T18:49:47.588Z,7.37
2022-11-24T18:52:14.213Z,7.35
2022-11-24T18:54:40.804Z,7.31
2022-11-24T18:57:07.434Z,7.29
2022-11-24T18:59:34.154Z,7.25
2022-11-24T19:02:00.781Z,7.23
2022-11-24T19:04:28.348Z,7.19
2022-11-24T19:06:54.893Z,7.17
2022-11-24T19:09:25.571Z,7.14
2022-11-24T19:11:52.176Z,7.12
2022-11-24T19:14:19.371Z,7.07
2022-11-24T19:16:48.022Z,7.06
2022-11-24T19:19:15.129Z,7.06
2022-11-24T19:21:41.819Z,7.07
2022-11-24T19:24:13.230Z,7.05
2022-11-24T19:26:39.971Z,7.02
2022-11-24T19:29:08.635Z,7.02
2022-11-24T19:31:35.573Z,7.01
2022-11-24T19:34:03.668Z,7.01
2022-11-24T19:36:34.364Z,6.98
2022-11-24T19:39:02.227Z,6.98
2022-11-24T19:41:31.010Z,6.94
2022-11-24T19:43:58.846Z,6.94
2022-11-24T19:46:27.813Z,6.94
2022-11-24T19:48:56.343Z,6.93
2022-11-24T19:51:24.482Z,6.92
2022-11-24T19:53:51.769Z,6.90
2022-11-24T19:56:24.161Z,6.88
2022-11-24T19:58:52.086Z,6.89
2022-11-24T20:01:31.522Z,6.87
2022-11-24T20:04:01.395Z,6.85
2022-11-24T20:06:30.272Z,6.85
2022-11-24T20:09:01.177Z,6.84
2022-11-24T20:11:28.779Z,6.83
2022-11-24T20:13:56.060Z,6.83
2022-11-24T20:16:29.514Z,6.85
2022-11-24T20:19:07.870Z,6.83
2022-11-24T20:21:36.044Z,6.83
2022-11-24T20:24:10.090Z,6.82
2022-11-24T20:26:39.520Z,6.83
2022-11-24T20:29:06.415Z,6.82
2022-11-24T20:31:35.855Z,6.81
2022-11-24T20:34:04.101Z,6.82
2022-11-24T20:36:32.642Z,6.78
2022-11-24T20:39:01.542Z,6.78
2022-11-24T20:41:30.655Z,6.82
2022-11-24T20:43:59.984Z,6.84
2022-11-24T20:46:29.678Z,6.87
2022-11-24T20:48:57.389Z,6.89
2022-11-24T20:51:27.349Z,6.91
2022-11-24T20:53:57.547Z,6.95
2022-11-24T20:56:26.973Z,6.98
2022-11-24T20:58:54.084Z,7.01
2022-11-24T21:01:24.152Z,7.06
2022-11-24T21:03:59.006Z,7.13
2022-11-24T21:06:26.755Z,7.13
2022-11-24T21:08:54.650Z,7.13
2022-11-24T21:11:24.241Z,7.13
2022-11-24T21:13:51.268Z,7.14
2022-11-24T21:16:37.752Z,7.13
2022-11-24T21:19:06.938Z,7.15
2022-11-24T21:21:36.799Z,7.18
2022-11-24T21:24:06.302Z,7.19
2022-11-24T21:26:39.547Z,7.24
2022-11-24T21:29:07.165Z,7.25
2022-11-24T21:31:38.625Z,7.24
2022-11-24T21:34:06.735Z,7.21
2022-11-24T21:36:35.160Z,7.22
2022-11-24T21:39:03.373Z,7.26
2022-11-24T21:41:32.840Z,7.27
2022-11-24T21:43:59.749Z,7.26
2022-11-24T21:46:32.395Z,7.26
2022-11-24T21:48:58.978Z,7.25
2022-11-24T21:51:25.472Z,7.25
2022-11-24T21:53:51.974Z,7.24
2022-11-24T21:56:21.812Z,7.20
2022-11-24T21:58:49.954Z,7.18
2022-11-24T22:01:19.137Z,7.19
2022-11-24T22:03:45.974Z,7.20
2022-11-24T22:06:13.398Z,7.22
2022-11-24T22:08:41.335Z,7.25
2022-11-24T22:11:16.333Z,7.26
2022-11-24T22:13:44.378Z,7.26
2022-11-24T22:16:14.532Z,7.27
2022-11-24T22:18:42.831Z,7.27
2022-11-24T22:21:14.850Z,7.28
2022-11-24T22:23:42.173Z,7.30
2022-11-24T22:26:13.518Z,7.31
2022-11-24T22:28:40.612Z,7.31
2022-11-24T22:31:12.457Z,7.31
2022-11-24T22:33:40.061Z,7.29
2022-11-24T22:36:07.367Z,7.29
2022-11-24T22:38:35.172Z,7.31
2022-11-24T22:41:12.591Z,7.32
2022-11-24T22:43:40.506Z,7.33
2022-11-24T22:46:16.826Z,7.35
2022-11-24T22:48:45.956Z,7.36
2022-11-24T22:51:15.173Z,7.36
2022-11-24T22:53:46.298Z,7.35
2022-11-24T22:56:13.632Z,7.35
2022-11-24T22:58:42.385Z,7.36
2022-11-24T23:01:15.756Z,7.37
2022-11-24T23:03:43.533Z,7.39
2022-11-24T23:06:13.184Z,7.38
2022-11-24T23:08:40.615Z,7.40
2022-11-24T23:11:11.014Z,7.39
2022-11-24T23:13:38.017Z,7.38
2022-11-24T23:16:11.740Z,7.38
2022-11-24T23:18:38.884Z,7.38
2022-11-24T23:21:14.255Z,7.37
2022-11-24T23:23:41.274Z,7.37
2022-11-24T23:26:11.019Z,7.36
2022-11-24T23:28:38.428Z,7.36
2022-11-24T23:31:07.835Z,7.36
2022-11-24T23:33:35.286Z,7.36
2022-11-24T23:36:04.772Z,7.35
2022-11-24T23:38:35.351Z,7.37
2022-11-24T23:41:04.995Z,7.36
2022-11-24T23:43:32.860Z,7.37
2022-11-24T23:46:07.586Z,7.36
2022-11-24T23:48:35.016Z,7.38
2022-11-24T23:51:14.133Z,7.39
2022-11-24T23:53:41.463Z,7.37
2022-11-24T23:56:09.330Z,7.37
2022-11-24T23:58:35.896Z,7.35
